Time;durP1;ratioP1;P1;durP2;ratioP2;P2;SDS_P1;SDS_P2;PMS_P1;PMS_P2;Temp;Humidity;BMP_temperature;BMP_pressure;BME280_temperature;BME280_humidity;BME280_pressure;Samples;Min_cycle;Max_cycle;Signal;HPM_P1;HPM_P2
2021/12/30 00:00:01;;;;;;;0.50;0.10;;;11.30;1.00;;;;;;5074047;28;20502;-74
2021/12/30 00:02:31;;;;;;;0.50;0.10;;;11.30;1.00;;;;;;5075621;28;20429;-74
2021/12/30 00:04:59;;;;;;;0.50;0.10;;;11.30;1.00;;;;;;5074264;28;20477;-74
2021/12/30 00:07:28;;;;;;;0.50;0.10;;;11.30;1.00;;;;;;5073831;28;20988;-73
2021/12/30 00:09:57;;;;;;;0.50;0.10;;;11.30;1.00;;;;;;5074123;28;20448;-73
2021/12/30 00:12:29;;;;;;;0.60;0.50;;;11.40;1.00;;;;;;5074637;28;20422;-74
2021/12/30 00:14:57;;;;;;;0.50;0.20;;;11.40;1.00;;;;;;5075553;28;20472;-75
2021/12/30 00:17:24;;;;;;;0.50;0.10;;;11.40;1.00;;;;;;5074765;28;20456;-73
2021/12/30 00:19:52;;;;;;;0.50;0.10;;;11.40;1.00;;;;;;5074078;28;20437;-74
2021/12/30 00:22:20;;;;;;;0.50;0.10;;;11.40;1.00;;;;;;5073506;28;20445;-72
2021/12/30 00:24:48;;;;;;;0.50;0.10;;;11.40;1.00;;;;;;5072308;28;20445;-73
2021/12/30 00:27:18;;;;;;;2.93;2.73;;;11.40;1.00;;;;;;5073488;28;20453;-73
2021/12/30 00:29:46;;;;;;;0.50;0.10;;;11.40;1.00;;;;;;5073407;28;20450;-72
2021/12/30 00:32:13;;;;;;;0.50;0.10;;;11.40;1.00;;;;;;5077501;28;20433;-74
2021/12/30 00:34:42;;;;;;;0.50;0.10;;;;;;;;;;5072429;28;20469;-72
2021/12/30 00:37:09;;;;;;;0.50;0.10;;;11.50;1.00;;;;;;5073589;28;20437;-72
2021/12/30 00:39:37;;;;;;;0.50;0.10;;;11.50;1.00;;;;;;5073297;28;20971;-75
2021/12/30 00:42:05;;;;;;;0.93;0.93;;;11.60;1.00;;;;;;5073114;28;20815;-71
2021/12/30 00:44:35;;;;;;;0.70;0.50;;;11.60;1.00;;;;;;5072859;28;21159;-73
2021/12/30 00:47:03;;;;;;;0.60;0.40;;;11.60;1.00;;;;;;5074344;28;20458;-73
2021/12/30 00:49:31;;;;;;;0.50;0.10;;;11.60;1.00;;;;;;5073232;28;20476;-73
2021/12/30 00:51:59;;;;;;;0.50;0.10;;;11.60;1.00;;;;;;5071646;28;20465;-73
2021/12/30 00:54:27;;;;;;;0.50;0.10;;;11.60;1.00;;;;;;5072944;28;20500;-73
2021/12/30 00:56:55;;;;;;;0.50;0.10;;;11.70;1.00;;;;;;5071774;28;20477;-72
2021/12/30 00:59:25;;;;;;;0.70;0.53;;;11.70;1.00;;;;;;5075141;28;20890;-72
2021/12/30 01:01:54;;;;;;;0.80;0.37;;;11.70;1.00;;;;;;5075790;28;20441;-74
2021/12/30 01:04:22;;;;;;;0.50;0.10;;;11.70;1.00;;;;;;5075096;28;20441;-71
2021/12/30 01:06:52;;;;;;;0.50;0.30;;;11.70;1.00;;;;;;5074238;28;21029;-72
2021/12/30 01:09:20;;;;;;;0.60;0.30;;;11.70;1.00;;;;;;5072851;28;20836;-72
2021/12/30 01:11:48;;;;;;;0.50;0.10;;;11.70;1.00;;;;;;5072480;28;20437;-74
2021/12/30 01:14:20;;;;;;;0.50;0.10;;;11.70;1.00;;;;;;5072401;28;20477;-72
2021/12/30 01:16:52;;;;;;;0.50;0.10;;;11.70;1.00;;;;;;5072627;28;20461;-73
2021/12/30 01:19:42;;;;;;;0.50;0.10;;;11.70;1.00;;;;;;5073090;28;20457;-72
2021/12/30 01:22:12;;;;;;;0.50;0.10;;;11.70;1.00;;;;;;5072723;28;20444;-73
2021/12/30 01:24:40;;;;;;;0.57;0.20;;;11.70;1.00;;;;;;5072534;28;20453;-72
2021/12/30 01:27:08;;;;;;;0.60;0.60;;;11.70;1.00;;;;;;5072465;28;20536;-73
2021/12/30 01:29:36;;;;;;;0.50;0.10;;;11.70;1.00;;;;;;5071980;28;20454;-72
2021/12/30 01:32:04;;;;;;;0.50;0.10;;;11.70;1.00;;;;;;5072389;28;20450;-72
2021/12/30 01:34:34;;;;;;;0.50;0.10;;;11.70;1.00;;;;;;5071830;28;20477;-73
2021/12/30 01:37:04;;;;;;;0.50;0.10;;;11.70;1.00;;;;;;5072993;28;20453;-73
2021/12/30 01:39:36;;;;;;;0.50;0.10;;;11.70;1.00;;;;;;5072997;28;20452;-74
2021/12/30 01:42:06;;;;;;;0.50;0.10;;;11.70;1.00;;;;;;5071830;28;20456;-72
2021/12/30 01:44:34;;;;;;;0.50;0.10;;;11.70;1.00;;;;;;5071870;28;20449;-71
2021/12/30 01:47:04;;;;;;;0.50;0.10;;;11.70;1.00;;;;;;5073045;28;20466;-74
2021/12/30 01:49:33;;;;;;;0.57;0.10;;;11.80;1.00;;;;;;5076605;28;20467;-74
2021/12/30 01:52:01;;;;;;;0.50;0.10;;;11.80;1.00;;;;;;5076347;28;20445;-74
2021/12/30 01:54:29;;;;;;;0.50;0.10;;;11.80;1.00;;;;;;5076173;28;20474;-74
2021/12/30 01:57:01;;;;;;;0.60;0.40;;;11.70;1.00;;;;;;5076377;28;20544;-72
2021/12/30 01:59:30;;;;;;;8.20;1.53;;;11.70;1.00;;;;;;5076478;28;20449;-74
2021/12/30 02:01:58;;;;;;;0.50;0.10;;;11.80;1.00;;;;;;5076107;28;20453;-73
2021/12/30 02:04:34;;;;;;;0.50;0.10;;;11.70;1.00;;;;;;5075588;28;20446;-73
2021/12/30 02:07:03;;;;;;;0.50;0.10;;;11.70;1.00;;;;;;5075955;28;20461;-74
2021/12/30 02:09:31;;;;;;;0.50;0.10;;;11.80;1.00;;;;;;5076493;28;20441;-73
2021/12/30 02:12:01;;;;;;;2.10;0.47;;;11.80;1.00;;;;;;5075928;28;20456;-72
2021/12/30 02:14:33;;;;;;;0.50;0.10;;;11.80;1.00;;;;;;5076143;28;20576;-73
2021/12/30 02:17:02;;;;;;;0.50;0.10;;;11.80;1.00;;;;;;5075925;28;20461;-72
2021/12/30 02:19:31;;;;;;;0.60;0.20;;;11.90;1.00;;;;;;5075721;28;21017;-72
2021/12/30 02:22:00;;;;;;;0.50;0.10;;;11.80;1.00;;;;;;5076258;28;20446;-72
2021/12/30 02:24:28;;;;;;;0.60;0.10;;;11.90;1.00;;;;;;5087191;28;20452;-72
2021/12/30 02:26:56;;;;;;;0.53;0.10;;;12.00;1.00;;;;;;5078192;28;20468;-73
2021/12/30 02:29:24;;;;;;;0.60;0.10;;;12.00;1.00;;;;;;5077111;28;20463;-73
2021/12/30 02:31:52;;;;;;;0.53;0.10;;;12.00;1.00;;;;;;5080298;28;20537;-72
2021/12/30 02:34:21;;;;;;;0.60;0.10;;;12.10;1.00;;;;;;5085005;28;20588;-73
2021/12/30 02:36:49;;;;;;;0.60;0.10;;;12.10;1.00;;;;;;5088834;28;20457;-74
2021/12/30 02:39:21;;;;;;;0.57;0.10;;;12.10;1.00;;;;;;5087180;28;20793;-73
2021/12/30 02:41:49;;;;;;;0.60;0.10;;;12.10;1.00;;;;;;5083329;28;20481;-73
2021/12/30 02:44:18;;;;;;;0.60;0.10;;;12.10;1.00;;;;;;5079003;28;20441;-74
2021/12/30 02:46:50;;;;;;;0.60;0.10;;;12.20;1.00;;;;;;5077906;28;20691;-73
2021/12/30 02:49:19;;;;;;;0.60;0.10;;;12.10;1.00;;;;;;5076712;28;20449;-72
2021/12/30 02:51:48;;;;;;;0.60;0.10;;;12.10;1.00;;;;;;5075663;28;20458;-73
2021/12/30 02:54:17;;;;;;;0.57;0.10;;;12.20;1.00;;;;;;5075828;28;20556;-73
2021/12/30 02:56:47;;;;;;;0.60;0.10;;;12.10;1.00;;;;;;5076036;28;20485;-72
2021/12/30 02:59:15;;;;;;;0.60;0.10;;;12.10;1.00;;;;;;5074486;28;20441;-73
2021/12/30 03:01:43;;;;;;;0.70;0.40;;;12.10;1.00;;;;;;5076162;28;20442;-71
2021/12/30 03:04:12;;;;;;;0.60;0.10;;;12.20;1.00;;;;;;5075871;28;20445;-73
2021/12/30 03:06:40;;;;;;;0.60;0.10;;;12.20;1.00;;;;;;5075083;28;20458;-71
2021/12/30 03:09:08;;;;;;;2.20;0.40;;;12.20;1.00;;;;;;5074800;28;20445;-72
2021/12/30 03:11:37;;;;;;;0.60;0.20;;;12.30;1.00;;;;;;5076505;28;20470;-74
2021/12/30 03:14:05;;;;;;;0.63;0.40;;;12.30;1.00;;;;;;5075423;28;20449;-72
2021/12/30 03:16:36;;;;;;;0.60;0.10;;;12.30;1.00;;;;;;5074925;28;20485;-72
2021/12/30 03:19:05;;;;;;;0.60;0.10;;;12.30;1.00;;;;;;5074844;28;20438;-72
2021/12/30 03:21:33;;;;;;;0.60;0.20;;;12.30;1.00;;;;;;5074837;28;20445;-71
2021/12/30 03:24:03;;;;;;;0.60;0.20;;;12.40;1.00;;;;;;5074144;28;20453;-76
2021/12/30 03:26:31;;;;;;;0.60;0.10;;;12.40;1.00;;;;;;5055663;28;20450;-73
2021/12/30 03:29:01;;;;;;;0.60;0.10;;;12.40;1.00;;;;;;5070500;28;20456;-73
2021/12/30 03:31:29;;;;;;;0.60;0.10;;;12.40;1.00;;;;;;5074546;28;20448;-72
2021/12/30 03:33:57;;;;;;;0.60;0.10;;;12.40;1.00;;;;;;5074770;28;20441;-73
2021/12/30 03:36:26;;;;;;;0.60;0.10;;;12.40;1.00;;;;;;5075600;28;20479;-73
2021/12/30 03:38:56;;;;;;;0.60;0.10;;;12.40;1.00;;;;;;5074690;28;20441;-73
2021/12/30 03:41:26;;;;;;;0.60;0.10;;;12.50;1.00;;;;;;5074927;28;20438;-73
2021/12/30 03:43:55;;;;;;;0.60;0.10;;;12.50;1.00;;;;;;5074783;28;20441;-72
2021/12/30 03:46:25;;;;;;;0.60;0.10;;;12.50;1.00;;;;;;5074057;28;20466;-74
2021/12/30 03:48:53;;;;;;;0.60;0.10;;;12.50;1.00;;;;;;5073798;28;20484;-74
2021/12/30 03:51:24;;;;;;;0.60;0.10;;;12.50;1.00;;;;;;5074312;28;20800;-72
2021/12/30 03:53:54;;;;;;;0.60;0.10;;;12.40;1.00;;;;;;5073723;28;20489;-71
2021/12/30 03:56:26;;;;;;;0.60;0.10;;;12.50;1.00;;;;;;5073969;28;20482;-72
2021/12/30 03:58:54;;;;;;;0.60;0.10;;;12.50;1.00;;;;;;5073909;28;20521;-71
2021/12/30 04:01:26;;;;;;;0.60;0.10;;;12.50;1.00;;;;;;5073583;28;20516;-73
2021/12/30 04:03:54;;;;;;;0.60;0.10;;;12.40;1.00;;;;;;5074193;28;20528;-71
2021/12/30 04:06:23;;;;;;;0.60;0.10;;;12.50;1.00;;;;;;5073492;28;20453;-73
2021/12/30 04:08:51;;;;;;;0.60;0.10;;;12.50;1.00;;;;;;5073627;28;20442;-72
2021/12/30 04:11:19;;;;;;;0.60;0.10;;;12.50;1.00;;;;;;5072336;28;20449;-72
2021/12/30 04:13:46;;;;;;;0.60;0.10;;;12.50;1.00;;;;;;5073384;28;20441;-72
2021/12/30 04:16:14;;;;;;;0.60;0.10;;;12.50;1.00;;;;;;5073156;28;20489;-72
2021/12/30 04:18:45;;;;;;;0.60;0.10;;;12.50;1.00;;;;;;5073814;28;20809;-72
2021/12/30 04:21:13;;;;;;;0.60;0.10;;;12.50;1.00;;;;;;5074391;28;20468;-71
2021/12/30 04:23:41;;;;;;;0.60;0.10;;;12.60;1.00;;;;;;5073701;28;20453;-72
2021/12/30 04:26:09;;;;;;;0.60;0.10;;;12.60;1.00;;;;;;5073353;28;20465;-72
2021/12/30 04:28:37;;;;;;;0.60;0.10;;;12.60;1.00;;;;;;5073888;28;20816;-72
2021/12/30 04:31:05;;;;;;;0.60;0.10;;;12.60;1.00;;;;;;5074099;28;20437;-71
2021/12/30 04:33:33;;;;;;;0.60;0.10;;;12.60;1.00;;;;;;5073050;28;20445;-73
2021/12/30 04:36:02;;;;;;;0.60;0.10;;;12.50;1.00;;;;;;5072937;28;20480;-73
2021/12/30 04:38:32;;;;;;;0.60;0.10;;;12.50;1.00;;;;;;5073414;28;20446;-73
2021/12/30 04:41:00;;;;;;;0.60;0.10;;;12.50;1.00;;;;;;5072927;28;20811;-72
2021/12/30 04:43:29;;;;;;;0.60;0.10;;;12.50;1.00;;;;;;5072907;28;20438;-73
2021/12/30 04:45:58;;;;;;;0.60;0.10;;;12.50;1.00;;;;;;5072526;28;20457;-72
2021/12/30 04:48:26;;;;;;;0.60;0.10;;;12.50;1.00;;;;;;5072143;28;20878;-73
2021/12/30 04:50:54;;;;;;;0.60;0.10;;;12.50;1.00;;;;;;5072500;28;20437;-74
2021/12/30 04:53:23;;;;;;;0.60;0.10;;;12.50;1.00;;;;;;5071643;28;20464;-72
2021/12/30 04:55:51;;;;;;;0.60;0.10;;;12.50;1.00;;;;;;5071187;28;20484;-73
2021/12/30 04:58:20;;;;;;;0.60;0.10;;;12.50;1.00;;;;;;5072135;28;21035;-72
2021/12/30 05:00:48;;;;;;;0.60;0.10;;;12.50;1.00;;;;;;5071951;28;20883;-73
2021/12/30 05:03:16;;;;;;;0.60;0.10;;;12.50;1.00;;;;;;5072417;28;20473;-72
2021/12/30 05:05:46;;;;;;;0.60;0.20;;;12.50;1.00;;;;;;5072035;28;20481;-72
2021/12/30 05:08:15;;;;;;;0.60;0.10;;;12.50;1.00;;;;;;5072053;28;20445;-72
2021/12/30 05:10:45;;;;;;;0.60;0.10;;;12.50;1.00;;;;;;5071890;28;20553;-73
2021/12/30 05:13:13;;;;;;;0.60;0.10;;;12.50;1.00;;;;;;5072174;28;20438;-73
2021/12/30 05:15:41;;;;;;;0.60;0.10;;;12.50;1.00;;;;;;5071947;28;20465;-73
2021/12/30 05:18:12;;;;;;;0.60;0.10;;;12.50;1.00;;;;;;5072230;28;20476;-73
2021/12/30 05:20:40;;;;;;;0.60;0.10;;;12.40;1.00;;;;;;5071721;28;20450;-72
2021/12/30 05:23:08;;;;;;;0.60;0.10;;;12.40;1.00;;;;;;5072776;28;20803;-72
2021/12/30 05:25:37;;;;;;;0.57;0.10;;;12.40;1.00;;;;;;5072988;28;20464;-72
2021/12/30 05:28:06;;;;;;;0.53;0.10;;;12.40;1.00;;;;;;5071781;28;20441;-72
2021/12/30 05:30:36;;;;;;;0.60;0.10;;;12.40;1.00;;;;;;5070173;28;21012;-72
2021/12/30 05:33:04;;;;;;;0.60;0.10;;;12.40;1.00;;;;;;5068303;28;20461;-72
2021/12/30 05:35:32;;;;;;;0.50;0.10;;;12.40;1.00;;;;;;5061364;28;20494;-73
2021/12/30 05:38:02;;;;;;;0.60;0.10;;;12.40;1.00;;;;;;5070875;28;20488;-72
2021/12/30 05:40:31;;;;;;;0.60;0.10;;;12.40;1.00;;;;;;5071802;28;20536;-73
2021/12/30 05:42:59;;;;;;;0.60;0.10;;;12.30;1.00;;;;;;5071553;28;20437;-72
2021/12/30 05:45:29;;;;;;;0.60;0.20;;;12.30;1.00;;;;;;5071545;28;20467;-73
2021/12/30 05:47:57;;;;;;;0.60;0.10;;;12.30;1.00;;;;;;5072832;28;20520;-72
2021/12/30 05:50:27;;;;;;;0.60;0.10;;;12.20;1.00;;;;;;5071465;28;20462;-71
2021/12/30 05:52:55;;;;;;;0.60;0.10;;;12.20;1.00;;;;;;5072218;28;20438;-73
2021/12/30 05:57:54;;;;;;;0.57;0.10;;;12.30;1.00;;;;;;5094009;28;20479;-75
2021/12/30 06:00:23;;;;;;;0.60;0.10;;;12.30;1.00;;;;;;5098438;28;20437;-76
2021/12/30 06:02:53;;;;;;;0.60;0.10;;;12.30;1.00;;;;;;5094115;28;20436;-75
2021/12/30 06:05:21;;;;;;;0.60;0.10;;;12.30;1.00;;;;;;5095495;28;21002;-74
2021/12/30 06:07:49;;;;;;;0.50;0.10;;;12.30;1.00;;;;;;5115265;28;20530;-76
2021/12/30 06:10:18;;;;;;;0.53;0.10;;;12.30;1.00;;;;;;5114316;28;20449;-74
2021/12/30 06:12:46;;;;;;;0.60;0.10;;;12.20;1.00;;;;;;5114442;28;20456;-76
2021/12/30 06:15:15;;;;;;;0.60;0.10;;;12.20;1.00;;;;;;5113808;28;20515;-77
2021/12/30 06:17:43;;;;;;;0.60;0.10;;;12.20;1.00;;;;;;5114564;28;20505;-76
2021/12/30 06:20:14;;;;;;;0.60;0.10;;;12.20;1.00;;;;;;5114888;28;20443;-75
2021/12/30 06:22:43;;;;;;;0.60;0.10;;;12.20;1.00;;;;;;5114838;28;20446;-76
2021/12/30 06:25:12;;;;;;;0.60;0.20;;;;;;;;;;5113947;28;20444;-76
2021/12/30 06:27:40;;;;;;;0.60;0.10;;;;;;;;;;5115848;28;20523;-76
2021/12/30 06:30:10;;;;;;;0.60;0.10;;;12.10;1.00;;;;;;5113495;28;20436;-76
2021/12/30 06:32:38;;;;;;;0.60;0.10;;;12.20;1.00;;;;;;5118526;28;20451;-75
2021/12/30 06:35:08;;;;;;;0.60;0.10;;;12.20;1.00;;;;;;5115895;28;20456;-74
2021/12/30 06:37:39;;;;;;;0.60;0.10;;;12.20;1.00;;;;;;5124449;28;20509;-74
2021/12/30 06:40:09;;;;;;;0.50;0.10;;;12.20;1.00;;;;;;5127158;28;20442;-75
2021/12/30 06:42:37;;;;;;;0.60;0.10;;;12.20;1.00;;;;;;5124785;28;20839;-76
2021/12/30 06:45:06;;;;;;;0.60;0.10;;;12.20;1.00;;;;;;5115583;28;20452;-76
2021/12/30 06:47:39;;;;;;;0.50;0.10;;;12.20;1.00;;;;;;5115069;28;20496;-76
2021/12/30 06:50:08;;;;;;;0.60;0.10;;;12.30;1.00;;;;;;5123186;28;20471;-75
2021/12/30 06:52:38;;;;;;;0.60;0.10;;;;;;;;;;5115181;28;20443;-75
2021/12/30 06:55:06;;;;;;;0.60;0.10;;;12.30;1.00;;;;;;5118484;28;20997;-75
2021/12/30 06:57:35;;;;;;;0.60;0.20;;;12.30;1.00;;;;;;5120768;28;20483;-76
2021/12/30 07:00:05;;;;;;;0.60;0.20;;;12.30;1.00;;;;;;5113476;28;20961;-75
2021/12/30 07:02:35;;;;;;;0.60;0.10;;;12.30;1.00;;;;;;5124744;28;20446;-74
2021/12/30 07:05:04;;;;;;;0.60;0.10;;;12.30;1.00;;;;;;5124667;28;20452;-75
2021/12/30 07:07:33;;;;;;;0.60;0.10;;;11.40;1.00;;;;;;5125318;28;20468;-77
2021/12/30 07:10:02;;;;;;;0.60;0.10;;;12.30;1.00;;;;;;5128462;28;20443;-74
2021/12/30 07:12:30;;;;;;;0.53;0.10;;;12.30;1.00;;;;;;5127797;28;20450;-76
2021/12/30 07:14:58;;;;;;;0.60;0.10;;;12.30;1.00;;;;;;5128856;28;20542;-75
2021/12/30 07:17:29;;;;;;;0.60;0.10;;;12.30;1.00;;;;;;5132541;28;20481;-77
2021/12/30 07:19:57;;;;;;;0.57;0.10;;;12.30;1.00;;;;;;5135518;28;20440;-77
2021/12/30 07:22:25;;;;;;;0.50;0.10;;;12.30;1.00;;;;;;5131144;28;20443;-77
2021/12/30 07:25:16;;;;;;;0.50;0.10;;;12.30;1.00;;;;;;5130072;28;20444;-77
2021/12/30 07:27:45;;;;;;;0.60;0.10;;;12.30;1.00;;;;;;5127578;28;20438;-76
2021/12/30 07:30:13;;;;;;;0.60;0.10;;;12.30;1.00;;;;;;5119947;28;20454;-75
2021/12/30 07:32:41;;;;;;;0.57;0.10;;;12.30;1.00;;;;;;5123728;28;20556;-75
2021/12/30 07:35:10;;;;;;;0.50;0.10;;;12.30;1.00;;;;;;5125045;28;20459;-73
2021/12/30 07:37:38;;;;;;;0.60;0.10;;;12.20;1.00;;;;;;5121498;28;20480;-77
2021/12/30 07:40:07;;;;;;;0.60;0.10;;;12.30;1.00;;;;;;5120214;28;20443;-75
2021/12/30 07:42:36;;;;;;;0.50;0.10;;;12.20;1.00;;;;;;5122543;28;20764;-78
2021/12/30 07:45:06;;;;;;;0.50;0.10;;;12.30;1.00;;;;;;5118469;28;20440;-77
2021/12/30 07:47:34;;;;;;;0.50;0.10;;;12.30;1.00;;;;;;5118113;28;20456;-76
2021/12/30 07:50:02;;;;;;;0.50;0.10;;;12.30;1.00;;;;;;5118247;28;20447;-77
2021/12/30 07:52:30;;;;;;;0.60;0.10;;;12.30;1.00;;;;;;5117325;28;20865;-77
2021/12/30 07:54:58;;;;;;;0.50;0.10;;;12.30;1.00;;;;;;5116645;28;20456;-76
2021/12/30 07:57:26;;;;;;;0.60;0.10;;;12.40;1.00;;;;;;5115774;28;21008;-75
2021/12/30 07:59:55;;;;;;;0.60;0.20;;;12.40;1.00;;;;;;5117324;28;20432;-77
2021/12/30 08:02:24;;;;;;;0.60;0.10;;;12.50;1.00;;;;;;5117473;28;20530;-77
2021/12/30 08:04:52;;;;;;;0.60;0.20;;;12.60;1.00;;;;;;5116619;28;20444;-77
2021/12/30 08:07:22;;;;;;;0.53;0.10;;;12.60;1.00;;;;;;5115879;28;20475;-77
2021/12/30 08:09:50;;;;;;;0.60;0.20;;;12.60;1.00;;;;;;5116685;28;20448;-76
2021/12/30 08:12:18;;;;;;;0.60;0.20;;;12.70;1.00;;;;;;5111239;28;20539;-76
2021/12/30 08:14:46;;;;;;;0.57;0.20;;;12.70;1.00;;;;;;5117041;28;20538;-76
2021/12/30 08:17:15;;;;;;;0.60;0.20;;;12.80;1.00;;;;;;5107428;28;20583;-78
2021/12/30 08:19:44;;;;;;;0.60;0.10;;;12.70;1.00;;;;;;5107968;28;20570;-77
2021/12/30 08:22:12;;;;;;;0.60;0.20;;;12.90;1.00;;;;;;5110307;28;20440;-77
2021/12/30 08:24:43;;;;;;;0.80;0.63;;;12.90;1.00;;;;;;5118305;28;20957;-76
2021/12/30 08:27:13;;;;;;;1.17;0.33;;;13.00;1.00;;;;;;5117914;28;20475;-74
2021/12/30 08:29:41;;;;;;;0.60;0.20;;;13.10;1.00;;;;;;5121559;28;20850;-77
2021/12/30 08:32:11;;;;;;;0.60;0.27;;;13.20;1.00;;;;;;5117270;28;20472;-75
2021/12/30 08:34:41;;;;;;;0.60;0.30;;;13.20;1.00;;;;;;5116636;28;20460;-77
2021/12/30 08:37:09;;;;;;;0.60;0.20;;;13.30;1.00;;;;;;5118481;28;20818;-78
2021/12/30 08:39:37;;;;;;;0.70;0.30;;;13.30;1.00;;;;;;5116199;28;20518;-77
2021/12/30 08:42:06;;;;;;;0.60;0.10;;;13.40;1.00;;;;;;5116095;28;20186;-77
2021/12/30 08:44:34;;;;;;;0.60;0.10;;;13.40;1.00;;;;;;5115586;28;20456;-77
2021/12/30 08:47:02;;;;;;;0.60;0.10;;;13.40;1.00;;;;;;5115599;28;20936;-77
2021/12/30 08:49:30;;;;;;;0.60;0.20;;;13.50;1.00;;;;;;5115651;28;20439;-76
2021/12/30 08:51:59;;;;;;;0.60;0.10;;;;;;;;;;5115105;28;20472;-77
2021/12/30 08:54:29;;;;;;;0.60;0.10;;;13.50;1.00;;;;;;5105946;28;20452;-76
2021/12/30 08:56:57;;;;;;;0.60;0.20;;;13.50;1.00;;;;;;5113844;28;20478;-76
2021/12/30 08:59:25;;;;;;;1.23;0.40;;;13.60;1.00;;;;;;5115626;28;20486;-78
2021/12/30 09:01:56;;;;;;;0.60;0.27;;;13.60;1.00;;;;;;5115457;28;20445;-76
2021/12/30 09:04:26;;;;;;;0.70;0.30;;;13.60;1.00;;;;;;5115549;28;20977;-79
2021/12/30 09:06:54;;;;;;;0.70;0.30;;;13.70;1.00;;;;;;5114958;28;20568;-77
2021/12/30 09:09:27;;;;;;;1.07;0.40;;;13.70;1.00;;;;;;5096147;28;20459;-77
2021/12/30 09:11:56;;;;;;;1.37;0.40;;;13.70;1.00;;;;;;5093938;28;20439;-75
2021/12/30 09:14:24;;;;;;;0.70;0.20;;;13.70;1.00;;;;;;5096229;28;20463;-76
2021/12/30 09:16:52;;;;;;;0.60;0.20;;;13.80;1.00;;;;;;5113315;28;20552;-76
2021/12/30 09:19:20;;;;;;;0.87;0.40;;;13.90;1.00;;;;;;5113498;28;20489;-76
2021/12/30 09:21:50;;;;;;;0.60;0.30;;;13.90;1.00;;;;;;5113346;28;20451;-75
2021/12/30 09:24:21;;;;;;;0.60;0.10;;;14.00;1.00;;;;;;5113178;28;20521;-75
2021/12/30 09:26:50;;;;;;;0.60;0.20;;;14.00;1.00;;;;;;5112789;28;20992;-76
2021/12/30 09:29:18;;;;;;;0.80;0.40;;;14.00;1.00;;;;;;5115158;28;20512;-76
2021/12/30 09:31:50;;;;;;;0.60;0.20;;;14.10;1.00;;;;;;5115080;28;20537;-78
2021/12/30 09:34:19;;;;;;;0.60;0.20;;;14.10;1.00;;;;;;5114432;28;20459;-75
2021/12/30 09:36:47;;;;;;;0.60;0.23;;;14.10;1.00;;;;;;5114138;28;20462;-76
2021/12/30 09:39:16;;;;;;;0.60;0.20;;;14.20;1.00;;;;;;5116015;28;20532;-74
2021/12/30 09:41:47;;;;;;;0.70;0.30;;;14.20;1.00;;;;;;5116419;28;20576;-77
2021/12/30 09:44:18;;;;;;;0.80;0.40;;;14.30;1.00;;;;;;5113929;28;20456;-77
2021/12/30 09:46:47;;;;;;;0.60;0.10;;;14.30;1.00;;;;;;5112329;28;20460;-75
2021/12/30 09:49:18;;;;;;;0.60;0.10;;;14.30;1.00;;;;;;5110906;28;20439;-75
2021/12/30 09:51:47;;;;;;;0.60;0.10;;;14.30;1.00;;;;;;5112353;28;20434;-76
2021/12/30 09:54:15;;;;;;;0.70;0.30;;;14.40;1.00;;;;;;5112751;28;20445;-77
2021/12/30 09:56:45;;;;;;;0.60;0.10;;;14.40;1.00;;;;;;5098810;28;20486;-77
2021/12/30 09:59:14;;;;;;;0.60;0.10;;;14.50;1.00;;;;;;5110135;28;20549;-77
2021/12/30 10:01:43;;;;;;;0.60;0.10;;;14.50;1.00;;;;;;5112402;28;20442;-77
2021/12/30 10:04:14;;;;;;;0.70;0.30;;;14.50;1.00;;;;;;5113443;28;20437;-78
2021/12/30 10:06:44;;;;;;;0.60;0.10;;;14.60;1.00;;;;;;5113093;28;20469;-75
2021/12/30 10:09:14;;;;;;;0.80;0.30;;;14.60;1.00;;;;;;5115346;28;20945;-75
2021/12/30 10:11:47;;;;;;;0.60;0.20;;;14.70;1.00;;;;;;5117694;28;20440;-76
2021/12/30 10:14:28;;;;;;;0.60;0.10;;;14.70;1.00;;;;;;5116984;28;20458;-76
2021/12/30 10:17:18;;;;;;;0.60;0.10;;;14.80;1.00;;;;;;5118391;28;20469;-76
2021/12/30 10:19:46;;;;;;;0.60;0.10;;;14.80;1.00;;;;;;5124422;27;20488;-77
2021/12/30 10:22:17;;;;;;;0.60;0.10;;;14.80;1.00;;;;;;5113554;28;20462;-76
2021/12/30 10:24:46;;;;;;;0.60;0.10;;;14.80;1.00;;;;;;5114833;27;20470;-76
2021/12/30 10:27:24;;;;;;;1.03;0.93;;;14.90;1.00;;;;;;5114111;28;21003;-77
2021/12/30 10:29:53;;;;;;;0.60;0.10;;;14.90;1.00;;;;;;5099244;28;20439;-77
2021/12/30 10:32:26;;;;;;;0.60;0.10;;;15.00;1.00;;;;;;5099668;28;20444;-74
2021/12/30 10:35:09;;;;;;;0.70;0.37;;;15.00;1.00;;;;;;5098428;28;20431;-76
2021/12/30 10:37:39;;;;;;;0.60;0.10;;;15.00;1.00;;;;;;5097919;28;20737;-76
2021/12/30 10:40:26;;;;;;;0.60;0.10;;;15.10;1.00;;;;;;5116054;28;20680;-76
2021/12/30 10:43:27;;;;;;;0.60;0.10;;;15.10;1.00;;;;;;5117675;28;20449;-78
2021/12/30 10:46:04;;;;;;;0.60;0.10;;;15.20;1.00;;;;;;5117052;28;20493;-77
2021/12/30 10:48:34;;;;;;;0.93;0.93;;;;;;;;;;5117480;28;20527;-77
2021/12/30 10:51:13;;;;;;;0.60;0.10;;;15.20;1.00;;;;;;5117276;28;20445;-77
2021/12/30 10:53:41;;;;;;;0.60;0.20;;;15.10;1.00;;;;;;5116688;28;20451;-76
2021/12/30 10:56:30;;;;;;;0.60;0.10;;;15.10;1.00;;;;;;5117355;28;20469;-77
2021/12/30 10:59:18;;;;;;;0.60;0.20;;;15.10;1.00;;;;;;5102266;28;20946;-77
2021/12/30 11:01:48;;;;;;;0.60;0.10;;;15.00;1.00;;;;;;5101072;28;20501;-76
2021/12/30 11:04:19;;;;;;;0.60;0.20;;;15.10;1.00;;;;;;5108764;28;20475;-76
2021/12/30 11:06:48;;;;;;;0.60;0.10;;;15.10;1.00;;;;;;5120941;28;20470;-77
2021/12/30 11:09:20;;;;;;;0.60;0.10;;;;;;;;;;5122074;28;20448;-76
2021/12/30 11:11:52;;;;;;;0.60;0.10;;;15.20;1.00;;;;;;5123410;28;20477;-77
2021/12/30 11:14:22;;;;;;;0.60;0.10;;;15.30;1.00;;;;;;5124550;28;20466;-78
2021/12/30 11:17:00;;;;;;;0.60;0.10;;;15.30;1.00;;;;;;5122566;28;20464;-77
2021/12/30 11:19:31;;;;;;;0.60;0.17;;;15.30;1.00;;;;;;5119119;28;20476;-77
2021/12/30 11:22:00;;;;;;;0.60;0.10;;;15.30;1.00;;;;;;5120103;28;20553;-76
2021/12/30 11:24:30;;;;;;;0.60;0.10;;;15.40;1.00;;;;;;5118404;28;20491;-76
2021/12/30 11:26:59;;;;;;;0.60;0.30;;;15.40;1.00;;;;;;5119928;28;20559;-75
2021/12/30 11:29:28;;;;;;;0.80;0.43;;;15.40;1.00;;;;;;5120910;28;20467;-76
2021/12/30 11:31:56;;;;;;;0.60;0.10;;;15.50;1.00;;;;;;5120222;28;20805;-74
2021/12/30 11:34:25;;;;;;;0.60;0.20;;;15.50;1.00;;;;;;5120105;28;20476;-77
2021/12/30 11:36:55;;;;;;;0.70;0.30;;;15.50;1.00;;;;;;5119200;28;20470;-75
2021/12/30 11:39:25;;;;;;;0.60;0.10;;;15.60;1.00;;;;;;5118905;28;20451;-77
2021/12/30 11:41:57;;;;;;;0.60;0.20;;;15.60;1.00;;;;;;5118244;28;20445;-75
2021/12/30 11:44:50;;;;;;;0.60;0.10;;;15.60;1.00;;;;;;5119217;28;20438;-77
2021/12/30 11:47:41;;;;;;;0.60;0.20;;;15.70;1.00;;;;;;5117220;28;20559;-78
2021/12/30 11:50:13;;;;;;;0.60;0.10;;;15.70;1.00;;;;;;5111312;27;20544;-76
2021/12/30 11:52:54;;;;;;;0.60;0.10;;;15.80;1.00;;;;;;5115964;28;20458;-76
2021/12/30 11:55:54;;;;;;;0.60;0.17;;;15.80;1.00;;;;;;5117243;28;20446;-77
2021/12/30 11:58:51;;;;;;;0.60;0.10;;;15.80;1.00;;;;;;5117384;28;20497;-77
2021/12/30 12:01:36;;;;;;;0.60;0.10;;;15.80;1.00;;;;;;5111079;28;20484;-77
2021/12/30 12:04:08;;;;;;;0.60;0.20;;;15.90;1.00;;;;;;5112143;28;20477;-76
2021/12/30 12:06:42;;;;;;;0.60;0.20;;;15.90;1.00;;;;;;5119395;28;20554;-75
2021/12/30 12:09:32;;;;;;;0.60;0.10;;;15.90;1.00;;;;;;5120245;28;20797;-77
2021/12/30 12:12:03;;;;;;;0.60;0.10;;;15.90;1.00;;;;;;5119917;28;20825;-76
2021/12/30 12:14:34;;;;;;;1.90;1.80;;;15.90;1.00;;;;;;5120716;28;20526;-77
2021/12/30 12:17:04;;;;;;;0.60;0.10;;;15.90;1.00;;;;;;5120375;28;20501;-76
2021/12/30 12:19:39;;;;;;;0.70;0.50;;;16.00;1.00;;;;;;5122780;28;20518;-76
2021/12/30 12:22:28;;;;;;;0.60;0.10;;;16.00;1.00;;;;;;5120692;28;20965;-76
2021/12/30 12:25:11;;;;;;;0.60;0.10;;;16.00;1.00;;;;;;5120874;28;20433;-75
2021/12/30 12:27:40;;;;;;;0.60;0.20;;;16.10;1.00;;;;;;5115665;28;20464;-74
2021/12/30 12:30:22;;;;;;;0.97;0.40;;;16.20;1.00;;;;;;5115761;28;20430;-76
2021/12/30 12:32:50;;;;;;;0.80;0.30;;;16.30;1.00;;;;;;5121337;28;20810;-76
2021/12/30 12:35:33;;;;;;;0.60;0.13;;;16.30;1.00;;;;;;5122298;28;20443;-76
2021/12/30 12:38:05;;;;;;;0.60;0.20;;;16.30;1.00;;;;;;5118814;28;20819;-76
2021/12/30 12:40:41;;;;;;;0.60;0.20;;;16.30;1.00;;;;;;5112470;28;20552;-76
2021/12/30 12:43:26;;;;;;;0.70;0.27;;;16.20;1.00;;;;;;5100462;28;20997;-76
2021/12/30 12:45:57;;;;;;;0.60;0.10;;;16.20;1.00;;;;;;5118676;28;20470;-77
2021/12/30 12:48:37;;;;;;;0.60;0.20;;;16.20;1.00;;;;;;5119449;28;21133;-76
2021/12/30 12:51:24;;;;;;;0.60;0.10;;;16.20;1.00;;;;;;5118117;28;20465;-77
2021/12/30 12:54:02;;;;;;;0.60;0.20;;;16.10;1.00;;;;;;5111143;28;20508;-76
2021/12/30 12:56:35;;;;;;;4.10;0.40;;;16.10;1.00;;;;;;5110178;28;20566;-76
2021/12/30 12:59:06;;;;;;;0.60;0.20;;;16.10;1.00;;;;;;5114861;28;20476;-75
2021/12/30 13:01:35;;;;;;;0.60;0.10;;;16.10;1.00;;;;;;5115313;28;20559;-76
2021/12/30 13:04:06;;;;;;;0.60;0.10;;;16.10;1.00;;;;;;5119056;28;20439;-75
2021/12/30 13:06:37;;;;;;;2.30;0.20;;;16.10;1.00;;;;;;5119030;28;20482;-76
2021/12/30 13:09:08;;;;;;;0.60;0.20;;;16.10;1.00;;;;;;5118889;28;20531;-76
2021/12/30 13:11:40;;;;;;;0.70;0.30;;;16.10;1.00;;;;;;5118787;28;20432;-76
2021/12/30 13:14:21;;;;;;;0.60;0.10;;;16.10;1.00;;;;;;5117534;28;20456;-77
2021/12/30 13:16:55;;;;;;;0.60;0.20;;;16.20;1.00;;;;;;5118302;28;20464;-75
2021/12/30 13:19:24;;;;;;;0.70;0.20;;;16.30;1.00;;;;;;5117281;28;20448;-76